All Spectrum Aviation - Van Nuys Airport - KVNY

HOME

Van Nuys Tower Recordings

Condor Squadron KVNY Webcam

Visit our Electronics Store

Condor Squadron Webcam - Van Nuys Airport - KVNY
Picture taken: Mon, 26 Jun 2017 20:37:40 -0700
YouTube Channel!    Latest Timelapse Movie    Full Size Image    Regular Size Image    

2017/06/27 02:51 KVNY 270251Z 34004KT 10SM CLR 31/05 A2989 RMK AO2 SLP109 T03060050 53003

HOME

Van Nuys Tower Recordings

Condor Squadron KVNY Webcam

Visit our Electronics Store